map of HNA home
HNA - Airport
Location
City:  Morioka, Iwate, Japan
Name:Hanamaki Airport
ICAO:RJSI
IATA:HNA

Details
Type:Airport (Aerodrome, Airfield)
Use:Public/Civil
Latitude:3925'43"N (39.428611)
Longitude:14108'07"E (141.135278)
Datum:WGS 1984
Elevation:297 ft (91 m)
Variation:8.50W (WMM2015 magnetic declination)
-0.05 annual change
Runways:1
Longest:8202 × 148 ft (2500 × 45 m), paved

Time
Time Zone:UTC+9
Local Time:

Weather
METAR:RJSI 111000Z 19003KT 9999 FEW040 SCT130 BKN/// 01/M03 Q1027

Related Locations
Nearby:
Farthest:SSMT: 11549 mi / 18586 km
Mostardas, RS, BR

Find:

   beyond  
but within

Other Information
Maps:
NOTAMs:
Links:
Sources:

  
  • flag of Japan
  • flag of Iwate
  

Sectional Chart

Flight Planning
at skyvector.com

Satellite Image

Google Maps Satellite view

 

Copyright © 2004-2018 Karl L. Swartz. All rights reserved.
The Great Circle Mapper name and logo are trademarks of the Great Circle Mapper.
All other trademarks mentioned herein belong to their respective owners.
Please see credits for attibutions and further copyright information.

  Follow gcmap on Facebook Follow gcmap on Twitter Follow gcmap on Google+ GCmap on LinkedIn

hCard Microformat

Geo Microformat